sensor_id;sensor_type;location;lat;lon;timestamp;P1;durP1;ratioP1;P2;durP2;ratioP2
43248;SDS011;29216;51.248;6.808;2024-01-30T00:00:12;11.75;;;7.97;;
43248;SDS011;29216;51.248;6.808;2024-01-30T00:02:38;12.73;;;7.85;;
43248;SDS011;29216;51.248;6.808;2024-01-30T00:05:04;9.93;;;7.05;;
43248;SDS011;29216;51.248;6.808;2024-01-30T00:07:30;12.35;;;7.65;;
43248;SDS011;29216;51.248;6.808;2024-01-30T00:09:56;11.27;;;7.40;;
43248;SDS011;29216;51.248;6.808;2024-01-30T00:12:22;14.13;;;7.55;;
43248;SDS011;29216;51.248;6.808;2024-01-30T00:14:48;11.50;;;6.85;;
43248;SDS011;29216;51.248;6.808;2024-01-30T00:17:14;12.15;;;7.88;;
43248;SDS011;29216;51.248;6.808;2024-01-30T00:19:40;11.57;;;7.55;;
43248;SDS011;29216;51.248;6.808;2024-01-30T00:22:06;13.05;;;8.15;;
43248;SDS011;29216;51.248;6.808;2024-01-30T00:24:32;10.88;;;7.40;;
43248;SDS011;29216;51.248;6.808;2024-01-30T00:26:58;11.43;;;7.50;;
43248;SDS011;29216;51.248;6.808;2024-01-30T00:29:24;11.75;;;7.45;;
43248;SDS011;29216;51.248;6.808;2024-01-30T00:31:55;14.23;;;8.40;;
43248;SDS011;29216;51.248;6.808;2024-01-30T00:34:21;11.43;;;7.47;;
43248;SDS011;29216;51.248;6.808;2024-01-30T00:36:47;12.55;;;7.60;;
43248;SDS011;29216;51.248;6.808;2024-01-30T00:39:13;13.95;;;8.20;;
43248;SDS011;29216;51.248;6.808;2024-01-30T00:41:40;13.65;;;7.90;;
43248;SDS011;29216;51.248;6.808;2024-01-30T00:44:06;9.88;;;7.35;;
43248;SDS011;29216;51.248;6.808;2024-01-30T00:46:32;10.75;;;7.93;;
43248;SDS011;29216;51.248;6.808;2024-01-30T00:48:58;13.00;;;8.35;;
43248;SDS011;29216;51.248;6.808;2024-01-30T00:51:24;12.55;;;7.35;;
43248;SDS011;29216;51.248;6.808;2024-01-30T00:53:50;13.35;;;7.50;;
43248;SDS011;29216;51.248;6.808;2024-01-30T00:56:16;13.57;;;7.70;;
43248;SDS011;29216;51.248;6.808;2024-01-30T00:58:43;10.30;;;7.68;;
43248;SDS011;29216;51.248;6.808;2024-01-30T01:01:09;10.18;;;7.50;;
43248;SDS011;29216;51.248;6.808;2024-01-30T01:03:36;14.50;;;8.48;;
43248;SDS011;29216;51.248;6.808;2024-01-30T01:06:02;14.75;;;8.60;;
43248;SDS011;29216;51.248;6.808;2024-01-30T01:08:28;10.18;;;7.28;;
43248;SDS011;29216;51.248;6.808;2024-01-30T01:10:54;9.73;;;7.65;;
43248;SDS011;29216;51.248;6.808;2024-01-30T01:13:20;12.95;;;7.75;;
43248;SDS011;29216;51.248;6.808;2024-01-30T01:15:46;14.10;;;8.32;;
43248;SDS011;29216;51.248;6.808;2024-01-30T01:18:12;11.23;;;8.75;;
43248;SDS011;29216;51.248;6.808;2024-01-30T01:20:38;12.32;;;7.85;;
43248;SDS011;29216;51.248;6.808;2024-01-30T01:23:04;14.20;;;8.18;;
43248;SDS011;29216;51.248;6.808;2024-01-30T01:25:30;10.43;;;8.07;;
43248;SDS011;29216;51.248;6.808;2024-01-30T01:27:55;12.50;;;7.50;;
43248;SDS011;29216;51.248;6.808;2024-01-30T01:30:22;15.30;;;7.45;;
43248;SDS011;29216;51.248;6.808;2024-01-30T01:32:48;13.38;;;8.05;;
43248;SDS011;29216;51.248;6.808;2024-01-30T01:35:22;11.90;;;8.05;;
43248;SDS011;29216;51.248;6.808;2024-01-30T01:37:51;18.20;;;8.13;;
43248;SDS011;29216;51.248;6.808;2024-01-30T01:40:22;18.25;;;8.88;;
43248;SDS011;29216;51.248;6.808;2024-01-30T01:42:49;15.20;;;8.20;;
43248;SDS011;29216;51.248;6.808;2024-01-30T01:45:15;16.17;;;7.68;;
43248;SDS011;29216;51.248;6.808;2024-01-30T01:47:41;14.00;;;7.97;;
43248;SDS011;29216;51.248;6.808;2024-01-30T01:50:08;16.05;;;8.25;;
43248;SDS011;29216;51.248;6.808;2024-01-30T01:52:34;12.50;;;7.82;;
43248;SDS011;29216;51.248;6.808;2024-01-30T01:55:00;10.85;;;7.20;;
43248;SDS011;29216;51.248;6.808;2024-01-30T01:57:26;16.13;;;8.20;;
43248;SDS011;29216;51.248;6.808;2024-01-30T01:59:52;15.57;;;8.23;;
43248;SDS011;29216;51.248;6.808;2024-01-30T02:02:18;12.48;;;8.15;;
43248;SDS011;29216;51.248;6.808;2024-01-30T02:04:45;12.77;;;7.65;;
43248;SDS011;29216;51.248;6.808;2024-01-30T02:07:11;12.27;;;7.90;;
43248;SDS011;29216;51.248;6.808;2024-01-30T02:09:37;10.85;;;7.75;;
43248;SDS011;29216;51.248;6.808;2024-01-30T02:12:03;10.55;;;7.75;;
43248;SDS011;29216;51.248;6.808;2024-01-30T02:14:29;10.43;;;7.40;;
43248;SDS011;29216;51.248;6.808;2024-01-30T02:16:55;12.05;;;7.38;;
43248;SDS011;29216;51.248;6.808;2024-01-30T02:19:21;13.48;;;7.00;;
43248;SDS011;29216;51.248;6.808;2024-01-30T02:21:47;12.13;;;7.93;;
43248;SDS011;29216;51.248;6.808;2024-01-30T02:24:13;14.07;;;7.47;;
43248;SDS011;29216;51.248;6.808;2024-01-30T02:26:42;14.30;;;7.72;;
43248;SDS011;29216;51.248;6.808;2024-01-30T02:29:08;10.93;;;7.10;;
43248;SDS011;29216;51.248;6.808;2024-01-30T02:31:34;12.40;;;7.43;;
43248;SDS011;29216;51.248;6.808;2024-01-30T02:34:00;10.32;;;6.97;;
43248;SDS011;29216;51.248;6.808;2024-01-30T02:36:26;11.50;;;6.82;;
43248;SDS011;29216;51.248;6.808;2024-01-30T02:38:52;11.35;;;7.43;;
43248;SDS011;29216;51.248;6.808;2024-01-30T02:41:18;15.18;;;7.80;;
43248;SDS011;29216;51.248;6.808;2024-01-30T02:43:44;14.38;;;6.97;;
43248;SDS011;29216;51.248;6.808;2024-01-30T02:46:10;14.40;;;8.30;;
43248;SDS011;29216;51.248;6.808;2024-01-30T02:48:36;11.85;;;7.13;;
43248;SDS011;29216;51.248;6.808;2024-01-30T02:51:04;14.90;;;7.90;;
43248;SDS011;29216;51.248;6.808;2024-01-30T02:53:30;15.25;;;6.93;;
43248;SDS011;29216;51.248;6.808;2024-01-30T02:55:56;14.63;;;7.30;;
43248;SDS011;29216;51.248;6.808;2024-01-30T02:58:22;13.00;;;7.60;;
43248;SDS011;29216;51.248;6.808;2024-01-30T03:00:48;13.93;;;7.43;;
43248;SDS011;29216;51.248;6.808;2024-01-30T03:03:14;13.90;;;7.43;;
43248;SDS011;29216;51.248;6.808;2024-01-30T03:05:40;9.68;;;6.82;;
43248;SDS011;29216;51.248;6.808;2024-01-30T03:08:06;8.90;;;6.50;;
43248;SDS011;29216;51.248;6.808;2024-01-30T03:10:32;10.30;;;6.90;;
43248;SDS011;29216;51.248;6.808;2024-01-30T03:12:58;12.30;;;7.57;;
43248;SDS011;29216;51.248;6.808;2024-01-30T03:15:24;12.32;;;6.57;;
43248;SDS011;29216;51.248;6.808;2024-01-30T03:17:50;10.10;;;6.25;;
43248;SDS011;29216;51.248;6.808;2024-01-30T03:20:16;9.60;;;6.60;;
43248;SDS011;29216;51.248;6.808;2024-01-30T03:22:42;13.02;;;7.25;;
43248;SDS011;29216;51.248;6.808;2024-01-30T03:25:08;10.00;;;7.30;;
43248;SDS011;29216;51.248;6.808;2024-01-30T03:27:34;11.90;;;6.80;;
43248;SDS011;29216;51.248;6.808;2024-01-30T03:30:00;10.13;;;7.30;;
43248;SDS011;29216;51.248;6.808;2024-01-30T03:32:26;11.70;;;7.00;;
43248;SDS011;29216;51.248;6.808;2024-01-30T03:34:53;10.00;;;6.60;;
43248;SDS011;29216;51.248;6.808;2024-01-30T03:37:19;12.57;;;7.03;;
43248;SDS011;29216;51.248;6.808;2024-01-30T03:39:45;10.27;;;6.70;;
43248;SDS011;29216;51.248;6.808;2024-01-30T03:42:11;10.82;;;6.85;;
43248;SDS011;29216;51.248;6.808;2024-01-30T03:44:37;9.35;;;6.45;;
43248;SDS011;29216;51.248;6.808;2024-01-30T03:47:03;13.73;;;6.72;;
43248;SDS011;29216;51.248;6.808;2024-01-30T03:49:29;8.90;;;6.95;;
43248;SDS011;29216;51.248;6.808;2024-01-30T03:51:55;10.40;;;6.78;;
43248;SDS011;29216;51.248;6.808;2024-01-30T03:54:21;10.00;;;6.55;;
43248;SDS011;29216;51.248;6.808;2024-01-30T03:56:47;8.80;;;6.25;;
43248;SDS011;29216;51.248;6.808;2024-01-30T03:59:13;11.43;;;6.93;;
43248;SDS011;29216;51.248;6.808;2024-01-30T04:01:38;13.27;;;6.90;;
43248;SDS011;29216;51.248;6.808;2024-01-30T04:04:04;8.90;;;6.55;;
43248;SDS011;29216;51.248;6.808;2024-01-30T04:06:30;11.13;;;6.55;;
43248;SDS011;29216;51.248;6.808;2024-01-30T04:08:56;11.20;;;6.75;;
43248;SDS011;29216;51.248;6.808;2024-01-30T04:11:22;9.98;;;6.47;;
43248;SDS011;29216;51.248;6.808;2024-01-30T04:13:48;11.10;;;7.32;;
43248;SDS011;29216;51.248;6.808;2024-01-30T04:16:21;10.68;;;6.75;;
43248;SDS011;29216;51.248;6.808;2024-01-30T04:18:47;11.90;;;7.18;;
43248;SDS011;29216;51.248;6.808;2024-01-30T04:21:13;13.35;;;8.18;;
43248;SDS011;29216;51.248;6.808;2024-01-30T04:23:42;10.40;;;6.70;;
43248;SDS011;29216;51.248;6.808;2024-01-30T04:26:08;13.10;;;7.30;;
43248;SDS011;29216;51.248;6.808;2024-01-30T04:28:34;12.35;;;8.07;;
43248;SDS011;29216;51.248;6.808;2024-01-30T04:31:00;11.02;;;7.25;;
43248;SDS011;29216;51.248;6.808;2024-01-30T04:33:26;13.80;;;7.10;;
43248;SDS011;29216;51.248;6.808;2024-01-30T04:35:52;13.05;;;7.30;;
43248;SDS011;29216;51.248;6.808;2024-01-30T04:38:18;8.90;;;6.35;;
43248;SDS011;29216;51.248;6.808;2024-01-30T04:40:44;12.63;;;7.38;;
43248;SDS011;29216;51.248;6.808;2024-01-30T04:43:10;12.48;;;7.75;;
43248;SDS011;29216;51.248;6.808;2024-01-30T04:45:36;10.55;;;6.95;;
43248;SDS011;29216;51.248;6.808;2024-01-30T04:48:02;12.80;;;7.57;;
43248;SDS011;29216;51.248;6.808;2024-01-30T04:50:28;16.35;;;7.95;;
43248;SDS011;29216;51.248;6.808;2024-01-30T04:52:54;14.77;;;7.65;;
43248;SDS011;29216;51.248;6.808;2024-01-30T04:55:20;10.88;;;7.32;;
43248;SDS011;29216;51.248;6.808;2024-01-30T04:57:46;10.52;;;7.03;;
43248;SDS011;29216;51.248;6.808;2024-01-30T05:00:12;12.95;;;7.15;;
43248;SDS011;29216;51.248;6.808;2024-01-30T05:02:38;12.05;;;7.22;;
43248;SDS011;29216;51.248;6.808;2024-01-30T05:05:04;9.60;;;6.85;;
43248;SDS011;29216;51.248;6.808;2024-01-30T05:07:31;11.65;;;7.57;;
43248;SDS011;29216;51.248;6.808;2024-01-30T05:09:57;9.98;;;7.40;;
43248;SDS011;29216;51.248;6.808;2024-01-30T05:12:23;11.27;;;7.93;;
43248;SDS011;29216;51.248;6.808;2024-01-30T05:14:48;12.60;;;7.95;;
43248;SDS011;29216;51.248;6.808;2024-01-30T05:17:14;10.38;;;7.45;;
43248;SDS011;29216;51.248;6.808;2024-01-30T05:19:42;11.00;;;7.07;;
43248;SDS011;29216;51.248;6.808;2024-01-30T05:22:08;14.15;;;7.53;;
43248;SDS011;29216;51.248;6.808;2024-01-30T05:24:35;13.63;;;7.63;;
43248;SDS011;29216;51.248;6.808;2024-01-30T05:27:01;12.68;;;7.93;;
43248;SDS011;29216;51.248;6.808;2024-01-30T05:29:27;12.13;;;7.63;;
43248;SDS011;29216;51.248;6.808;2024-01-30T05:31:53;12.77;;;7.65;;
43248;SDS011;29216;51.248;6.808;2024-01-30T05:34:19;12.65;;;7.47;;
43248;SDS011;29216;51.248;6.808;2024-01-30T05:36:45;12.52;;;7.50;;
43248;SDS011;29216;51.248;6.808;2024-01-30T05:39:11;12.10;;;7.47;;
43248;SDS011;29216;51.248;6.808;2024-01-30T05:41:38;12.75;;;6.80;;
43248;SDS011;29216;51.248;6.808;2024-01-30T05:44:04;9.35;;;6.57;;
43248;SDS011;29216;51.248;6.808;2024-01-30T05:46:30;13.25;;;7.47;;
43248;SDS011;29216;51.248;6.808;2024-01-30T05:48:56;12.23;;;7.25;;
43248;SDS011;29216;51.248;6.808;2024-01-30T05:51:22;15.38;;;8.15;;
43248;SDS011;29216;51.248;6.808;2024-01-30T05:53:48;12.57;;;7.75;;
43248;SDS011;29216;51.248;6.808;2024-01-30T05:56:14;10.65;;;6.93;;
43248;SDS011;29216;51.248;6.808;2024-01-30T05:58:40;11.77;;;7.60;;
43248;SDS011;29216;51.248;6.808;2024-01-30T06:01:08;13.38;;;7.40;;
43248;SDS011;29216;51.248;6.808;2024-01-30T06:03:34;10.25;;;6.88;;
43248;SDS011;29216;51.248;6.808;2024-01-30T06:06:00;10.40;;;7.25;;
43248;SDS011;29216;51.248;6.808;2024-01-30T06:08:26;10.82;;;6.90;;
43248;SDS011;29216;51.248;6.808;2024-01-30T06:10:52;13.73;;;7.90;;
43248;SDS011;29216;51.248;6.808;2024-01-30T06:13:18;10.90;;;7.22;;
43248;SDS011;29216;51.248;6.808;2024-01-30T06:15:44;12.15;;;7.93;;
43248;SDS011;29216;51.248;6.808;2024-01-30T06:18:10;12.82;;;8.00;;
43248;SDS011;29216;51.248;6.808;2024-01-30T06:20:36;15.02;;;8.40;;
43248;SDS011;29216;51.248;6.808;2024-01-30T06:23:02;11.25;;;7.50;;
43248;SDS011;29216;51.248;6.808;2024-01-30T06:25:28;13.13;;;8.05;;
43248;SDS011;29216;51.248;6.808;2024-01-30T06:27:54;10.63;;;7.88;;
43248;SDS011;29216;51.248;6.808;2024-01-30T06:30:20;12.45;;;7.75;;
43248;SDS011;29216;51.248;6.808;2024-01-30T06:32:46;11.63;;;7.57;;
43248;SDS011;29216;51.248;6.808;2024-01-30T06:35:12;12.63;;;7.55;;
43248;SDS011;29216;51.248;6.808;2024-01-30T06:37:38;14.15;;;7.90;;
43248;SDS011;29216;51.248;6.808;2024-01-30T06:40:04;12.13;;;7.53;;
43248;SDS011;29216;51.248;6.808;2024-01-30T06:42:30;10.20;;;6.80;;
43248;SDS011;29216;51.248;6.808;2024-01-30T06:44:56;10.65;;;7.38;;
43248;SDS011;29216;51.248;6.808;2024-01-30T06:47:22;14.57;;;7.85;;
43248;SDS011;29216;51.248;6.808;2024-01-30T06:49:48;11.60;;;7.65;;
43248;SDS011;29216;51.248;6.808;2024-01-30T06:52:14;12.68;;;6.80;;
43248;SDS011;29216;51.248;6.808;2024-01-30T06:54:40;12.90;;;7.13;;
43248;SDS011;29216;51.248;6.808;2024-01-30T06:57:06;9.68;;;7.05;;
43248;SDS011;29216;51.248;6.808;2024-01-30T06:59:36;12.75;;;7.13;;
43248;SDS011;29216;51.248;6.808;2024-01-30T07:02:08;11.25;;;6.65;;
43248;SDS011;29216;51.248;6.808;2024-01-30T07:04:34;10.23;;;7.38;;
43248;SDS011;29216;51.248;6.808;2024-01-30T07:07:02;9.18;;;6.28;;
43248;SDS011;29216;51.248;6.808;2024-01-30T07:09:29;13.43;;;7.35;;
43248;SDS011;29216;51.248;6.808;2024-01-30T07:11:55;11.38;;;6.40;;
43248;SDS011;29216;51.248;6.808;2024-01-30T07:14:23;9.35;;;6.72;;
43248;SDS011;29216;51.248;6.808;2024-01-30T07:16:49;15.20;;;6.85;;
43248;SDS011;29216;51.248;6.808;2024-01-30T07:19:15;13.32;;;7.88;;
43248;SDS011;29216;51.248;6.808;2024-01-30T07:21:41;11.18;;;6.68;;
43248;SDS011;29216;51.248;6.808;2024-01-30T07:24:07;11.98;;;6.78;;
43248;SDS011;29216;51.248;6.808;2024-01-30T07:26:33;12.82;;;6.53;;
43248;SDS011;29216;51.248;6.808;2024-01-30T07:29:00;9.88;;;6.88;;
43248;SDS011;29216;51.248;6.808;2024-01-30T07:31:26;11.82;;;6.60;;
43248;SDS011;29216;51.248;6.808;2024-01-30T07:33:52;9.82;;;6.30;;
43248;SDS011;29216;51.248;6.808;2024-01-30T07:36:19;10.18;;;6.63;;
43248;SDS011;29216;51.248;6.808;2024-01-30T07:38:45;11.55;;;7.13;;
43248;SDS011;29216;51.248;6.808;2024-01-30T07:41:11;11.63;;;6.70;;
43248;SDS011;29216;51.248;6.808;2024-01-30T07:43:40;10.20;;;6.63;;
43248;SDS011;29216;51.248;6.808;2024-01-30T07:46:06;9.77;;;6.40;;
43248;SDS011;29216;51.248;6.808;2024-01-30T07:48:33;9.25;;;6.80;;
43248;SDS011;29216;51.248;6.808;2024-01-30T07:50:59;12.23;;;7.55;;
43248;SDS011;29216;51.248;6.808;2024-01-30T07:53:25;10.95;;;6.53;;
43248;SDS011;29216;51.248;6.808;2024-01-30T07:55:52;12.90;;;6.75;;
43248;SDS011;29216;51.248;6.808;2024-01-30T07:58:18;10.88;;;7.00;;
43248;SDS011;29216;51.248;6.808;2024-01-30T08:00:44;10.25;;;6.93;;
43248;SDS011;29216;51.248;6.808;2024-01-30T08:03:10;10.07;;;7.25;;
43248;SDS011;29216;51.248;6.808;2024-01-30T08:05:36;11.55;;;6.97;;
43248;SDS011;29216;51.248;6.808;2024-01-30T08:08:04;9.95;;;6.68;;
43248;SDS011;29216;51.248;6.808;2024-01-30T08:10:30;11.32;;;6.78;;
43248;SDS011;29216;51.248;6.808;2024-01-30T08:12:56;10.18;;;6.53;;
43248;SDS011;29216;51.248;6.808;2024-01-30T08:15:22;11.90;;;7.28;;
43248;SDS011;29216;51.248;6.808;2024-01-30T08:17:48;14.70;;;6.53;;
43248;SDS011;29216;51.248;6.808;2024-01-30T08:20:14;13.65;;;7.07;;
43248;SDS011;29216;51.248;6.808;2024-01-30T08:22:40;11.35;;;6.60;;
43248;SDS011;29216;51.248;6.808;2024-01-30T08:25:06;11.05;;;6.78;;
43248;SDS011;29216;51.248;6.808;2024-01-30T08:27:32;11.32;;;6.85;;
43248;SDS011;29216;51.248;6.808;2024-01-30T08:30:00;11.98;;;7.00;;
43248;SDS011;29216;51.248;6.808;2024-01-30T08:32:26;11.57;;;7.10;;
43248;SDS011;29216;51.248;6.808;2024-01-30T08:34:52;13.15;;;7.82;;
43248;SDS011;29216;51.248;6.808;2024-01-30T08:37:18;12.93;;;7.38;;
43248;SDS011;29216;51.248;6.808;2024-01-30T08:39:44;13.40;;;6.95;;
43248;SDS011;29216;51.248;6.808;2024-01-30T08:42:10;11.88;;;6.82;;
43248;SDS011;29216;51.248;6.808;2024-01-30T08:44:36;10.10;;;6.68;;
43248;SDS011;29216;51.248;6.808;2024-01-30T08:47:03;9.70;;;6.60;;
43248;SDS011;29216;51.248;6.808;2024-01-30T08:49:29;11.85;;;6.65;;
43248;SDS011;29216;51.248;6.808;2024-01-30T08:51:56;10.32;;;6.38;;
43248;SDS011;29216;51.248;6.808;2024-01-30T08:54:22;10.80;;;6.78;;
43248;SDS011;29216;51.248;6.808;2024-01-30T08:56:49;9.93;;;7.00;;
43248;SDS011;29216;51.248;6.808;2024-01-30T08:59:15;9.85;;;6.60;;
43248;SDS011;29216;51.248;6.808;2024-01-30T09:01:41;10.45;;;6.70;;
43248;SDS011;29216;51.248;6.808;2024-01-30T09:04:07;13.23;;;6.78;;
43248;SDS011;29216;51.248;6.808;2024-01-30T09:06:33;11.30;;;7.20;;
43248;SDS011;29216;51.248;6.808;2024-01-30T09:08:59;9.70;;;6.45;;
43248;SDS011;29216;51.248;6.808;2024-01-30T09:11:25;11.40;;;8.40;;
43248;SDS011;29216;51.248;6.808;2024-01-30T09:13:51;14.32;;;7.20;;
43248;SDS011;29216;51.248;6.808;2024-01-30T09:16:17;13.85;;;6.47;;
43248;SDS011;29216;51.248;6.808;2024-01-30T09:18:43;14.05;;;7.60;;
43248;SDS011;29216;51.248;6.808;2024-01-30T09:21:09;9.15;;;6.50;;
43248;SDS011;29216;51.248;6.808;2024-01-30T09:23:35;10.55;;;6.57;;
43248;SDS011;29216;51.248;6.808;2024-01-30T09:26:01;12.10;;;6.35;;
43248;SDS011;29216;51.248;6.808;2024-01-30T09:28:27;12.25;;;7.68;;
43248;SDS011;29216;51.248;6.808;2024-01-30T09:30:53;13.70;;;6.93;;
43248;SDS011;29216;51.248;6.808;2024-01-30T09:33:19;10.80;;;6.85;;
43248;SDS011;29216;51.248;6.808;2024-01-30T09:35:45;12.43;;;7.22;;
43248;SDS011;29216;51.248;6.808;2024-01-30T09:38:11;11.85;;;7.60;;
43248;SDS011;29216;51.248;6.808;2024-01-30T09:40:37;10.63;;;6.32;;
43248;SDS011;29216;51.248;6.808;2024-01-30T09:43:03;16.20;;;6.78;;
43248;SDS011;29216;51.248;6.808;2024-01-30T09:45:30;13.43;;;7.13;;
43248;SDS011;29216;51.248;6.808;2024-01-30T09:47:58;11.88;;;6.65;;
43248;SDS011;29216;51.248;6.808;2024-01-30T09:50:24;16.42;;;7.28;;
43248;SDS011;29216;51.248;6.808;2024-01-30T09:52:50;10.30;;;6.40;;
43248;SDS011;29216;51.248;6.808;2024-01-30T09:55:17;12.02;;;6.35;;
43248;SDS011;29216;51.248;6.808;2024-01-30T09:57:43;10.15;;;7.13;;
43248;SDS011;29216;51.248;6.808;2024-01-30T10:00:09;13.80;;;7.15;;
43248;SDS011;29216;51.248;6.808;2024-01-30T10:02:35;11.07;;;6.68;;
43248;SDS011;29216;51.248;6.808;2024-01-30T10:05:01;9.98;;;6.97;;
43248;SDS011;29216;51.248;6.808;2024-01-30T10:07:27;9.90;;;6.50;;
43248;SDS011;29216;51.248;6.808;2024-01-30T10:09:53;13.10;;;7.00;;
43248;SDS011;29216;51.248;6.808;2024-01-30T10:12:22;13.38;;;6.93;;
43248;SDS011;29216;51.248;6.808;2024-01-30T10:14:49;10.13;;;6.57;;
43248;SDS011;29216;51.248;6.808;2024-01-30T10:17:15;14.15;;;8.57;;
43248;SDS011;29216;51.248;6.808;2024-01-30T10:19:41;10.30;;;6.85;;
43248;SDS011;29216;51.248;6.808;2024-01-30T10:22:07;10.52;;;6.40;;
43248;SDS011;29216;51.248;6.808;2024-01-30T10:24:34;11.88;;;7.13;;
43248;SDS011;29216;51.248;6.808;2024-01-30T10:27:00;12.25;;;7.38;;
43248;SDS011;29216;51.248;6.808;2024-01-30T10:29:27;15.48;;;7.43;;
43248;SDS011;29216;51.248;6.808;2024-01-30T10:32:00;12.18;;;6.65;;
43248;SDS011;29216;51.248;6.808;2024-01-30T10:34:26;13.87;;;7.13;;
43248;SDS011;29216;51.248;6.808;2024-01-30T10:37:06;13.65;;;6.72;;
43248;SDS011;29216;51.248;6.808;2024-01-30T10:39:37;12.35;;;7.07;;
43248;SDS011;29216;51.248;6.808;2024-01-30T10:42:04;13.23;;;6.95;;
43248;SDS011;29216;51.248;6.808;2024-01-30T10:44:33;12.27;;;6.95;;
43248;SDS011;29216;51.248;6.808;2024-01-30T10:47:03;11.55;;;6.97;;
43248;SDS011;29216;51.248;6.808;2024-01-30T10:49:33;11.98;;;6.57;;
43248;SDS011;29216;51.248;6.808;2024-01-30T10:51:59;12.15;;;7.47;;
43248;SDS011;29216;51.248;6.808;2024-01-30T10:54:25;15.27;;;6.70;;
43248;SDS011;29216;51.248;6.808;2024-01-30T10:56:52;11.90;;;7.38;;
43248;SDS011;29216;51.248;6.808;2024-01-30T10:59:18;11.45;;;7.25;;
43248;SDS011;29216;51.248;6.808;2024-01-30T11:01:44;12.85;;;7.40;;
43248;SDS011;29216;51.248;6.808;2024-01-30T11:04:11;10.98;;;6.90;;
43248;SDS011;29216;51.248;6.808;2024-01-30T11:06:41;10.02;;;6.72;;
43248;SDS011;29216;51.248;6.808;2024-01-30T11:09:11;14.20;;;7.30;;
43248;SDS011;29216;51.248;6.808;2024-01-30T11:14:15;9.52;;;6.85;;
43248;SDS011;29216;51.248;6.808;2024-01-30T11:16:42;11.93;;;6.38;;
43248;SDS011;29216;51.248;6.808;2024-01-30T11:19:11;15.85;;;7.70;;
43248;SDS011;29216;51.248;6.808;2024-01-30T11:21:43;17.02;;;7.30;;
43248;SDS011;29216;51.248;6.808;2024-01-30T11:24:09;20.60;;;8.68;;
43248;SDS011;29216;51.248;6.808;2024-01-30T11:26:36;12.32;;;6.72;;
43248;SDS011;29216;51.248;6.808;2024-01-30T11:29:07;13.13;;;7.30;;
43248;SDS011;29216;51.248;6.808;2024-01-30T11:31:34;17.52;;;7.60;;
43248;SDS011;29216;51.248;6.808;2024-01-30T11:34:00;11.25;;;6.57;;
43248;SDS011;29216;51.248;6.808;2024-01-30T11:36:26;16.15;;;7.78;;
43248;SDS011;29216;51.248;6.808;2024-01-30T11:38:53;11.73;;;7.50;;
43248;SDS011;29216;51.248;6.808;2024-01-30T11:41:20;13.40;;;7.38;;
43248;SDS011;29216;51.248;6.808;2024-01-30T11:43:52;9.80;;;6.25;;
43248;SDS011;29216;51.248;6.808;2024-01-30T11:46:19;11.95;;;6.75;;
43248;SDS011;29216;51.248;6.808;2024-01-30T11:48:45;12.10;;;6.63;;
43248;SDS011;29216;51.248;6.808;2024-01-30T11:51:12;13.85;;;7.20;;
43248;SDS011;29216;51.248;6.808;2024-01-30T11:53:38;12.35;;;7.00;;
43248;SDS011;29216;51.248;6.808;2024-01-30T11:56:06;10.05;;;6.45;;
43248;SDS011;29216;51.248;6.808;2024-01-30T11:58:33;10.93;;;6.50;;
43248;SDS011;29216;51.248;6.808;2024-01-30T12:00:59;13.35;;;7.03;;
43248;SDS011;29216;51.248;6.808;2024-01-30T12:03:25;10.05;;;6.63;;
43248;SDS011;29216;51.248;6.808;2024-01-30T12:05:55;13.63;;;7.53;;
43248;SDS011;29216;51.248;6.808;2024-01-30T12:08:22;10.65;;;7.28;;
43248;SDS011;29216;51.248;6.808;2024-01-30T12:10:55;9.77;;;6.55;;
43248;SDS011;29216;51.248;6.808;2024-01-30T12:13:21;12.02;;;6.78;;
43248;SDS011;29216;51.248;6.808;2024-01-30T12:15:47;12.38;;;6.95;;
43248;SDS011;29216;51.248;6.808;2024-01-30T12:18:13;12.38;;;6.55;;
43248;SDS011;29216;51.248;6.808;2024-01-30T12:20:39;12.50;;;8.02;;
43248;SDS011;29216;51.248;6.808;2024-01-30T12:23:05;14.10;;;7.88;;
43248;SDS011;29216;51.248;6.808;2024-01-30T12:25:31;14.77;;;7.63;;
43248;SDS011;29216;51.248;6.808;2024-01-30T12:27:58;16.90;;;6.85;;
43248;SDS011;29216;51.248;6.808;2024-01-30T12:30:24;15.15;;;6.85;;
43248;SDS011;29216;51.248;6.808;2024-01-30T12:32:50;12.48;;;6.88;;
43248;SDS011;29216;51.248;6.808;2024-01-30T12:35:17;9.30;;;6.40;;
43248;SDS011;29216;51.248;6.808;2024-01-30T12:37:43;17.48;;;7.13;;
43248;SDS011;29216;51.248;6.808;2024-01-30T12:40:10;10.00;;;6.22;;
43248;SDS011;29216;51.248;6.808;2024-01-30T12:42:38;11.77;;;6.13;;
43248;SDS011;29216;51.248;6.808;2024-01-30T12:45:04;13.55;;;6.97;;
43248;SDS011;29216;51.248;6.808;2024-01-30T12:47:32;13.48;;;6.60;;
43248;SDS011;29216;51.248;6.808;2024-01-30T12:49:58;12.60;;;6.93;;
43248;SDS011;29216;51.248;6.808;2024-01-30T12:52:24;9.75;;;6.20;;
43248;SDS011;29216;51.248;6.808;2024-01-30T12:54:50;12.88;;;6.38;;
43248;SDS011;29216;51.248;6.808;2024-01-30T12:57:17;10.18;;;5.90;;
43248;SDS011;29216;51.248;6.808;2024-01-30T12:59:43;13.25;;;6.10;;
43248;SDS011;29216;51.248;6.808;2024-01-30T13:02:10;10.65;;;5.93;;
43248;SDS011;29216;51.248;6.808;2024-01-30T13:04:36;10.93;;;5.65;;
43248;SDS011;29216;51.248;6.808;2024-01-30T13:07:02;13.30;;;6.18;;
43248;SDS011;29216;51.248;6.808;2024-01-30T13:09:29;9.35;;;5.70;;
43248;SDS011;29216;51.248;6.808;2024-01-30T13:11:56;9.07;;;5.85;;
43248;SDS011;29216;51.248;6.808;2024-01-30T13:14:22;9.00;;;5.38;;
43248;SDS011;29216;51.248;6.808;2024-01-30T13:16:48;13.00;;;5.80;;
43248;SDS011;29216;51.248;6.808;2024-01-30T13:19:14;10.48;;;5.90;;
43248;SDS011;29216;51.248;6.808;2024-01-30T13:21:40;13.07;;;6.20;;
43248;SDS011;29216;51.248;6.808;2024-01-30T13:24:06;10.90;;;5.70;;
43248;SDS011;29216;51.248;6.808;2024-01-30T13:26:32;13.65;;;6.13;;
43248;SDS011;29216;51.248;6.808;2024-01-30T13:28:58;12.40;;;5.60;;
43248;SDS011;29216;51.248;6.808;2024-01-30T13:31:24;11.65;;;5.95;;
43248;SDS011;29216;51.248;6.808;2024-01-30T13:33:52;12.40;;;5.40;;
43248;SDS011;29216;51.248;6.808;2024-01-30T13:36:18;9.57;;;5.50;;
43248;SDS011;29216;51.248;6.808;2024-01-30T13:38:44;10.55;;;6.20;;
43248;SDS011;29216;51.248;6.808;2024-01-30T13:41:10;9.38;;;5.47;;
43248;SDS011;29216;51.248;6.808;2024-01-30T13:43:36;10.95;;;5.90;;
43248;SDS011;29216;51.248;6.808;2024-01-30T13:46:02;10.13;;;5.85;;
43248;SDS011;29216;51.248;6.808;2024-01-30T13:48:28;12.02;;;5.82;;
43248;SDS011;29216;51.248;6.808;2024-01-30T13:50:54;10.73;;;6.15;;
43248;SDS011;29216;51.248;6.808;2024-01-30T13:53:21;11.05;;;6.32;;
43248;SDS011;29216;51.248;6.808;2024-01-30T13:55:47;14.82;;;6.05;;
43248;SDS011;29216;51.248;6.808;2024-01-30T13:58:13;10.88;;;6.32;;
43248;SDS011;29216;51.248;6.808;2024-01-30T14:00:39;11.18;;;6.70;;
43248;SDS011;29216;51.248;6.808;2024-01-30T14:03:05;12.18;;;6.07;;
43248;SDS011;29216;51.248;6.808;2024-01-30T14:05:31;8.80;;;5.43;;
43248;SDS011;29216;51.248;6.808;2024-01-30T14:07:58;11.10;;;6.30;;
43248;SDS011;29216;51.248;6.808;2024-01-30T14:10:24;12.98;;;6.13;;
43248;SDS011;29216;51.248;6.808;2024-01-30T14:12:50;12.43;;;7.07;;
43248;SDS011;29216;51.248;6.808;2024-01-30T14:15:16;11.98;;;6.20;;
43248;SDS011;29216;51.248;6.808;2024-01-30T14:17:43;11.40;;;6.50;;
43248;SDS011;29216;51.248;6.808;2024-01-30T14:20:10;10.07;;;6.65;;
43248;SDS011;29216;51.248;6.808;2024-01-30T14:22:36;9.38;;;6.35;;
43248;SDS011;29216;51.248;6.808;2024-01-30T14:25:02;8.80;;;5.68;;
43248;SDS011;29216;51.248;6.808;2024-01-30T14:27:29;12.32;;;6.32;;
43248;SDS011;29216;51.248;6.808;2024-01-30T14:29:56;14.75;;;7.45;;
43248;SDS011;29216;51.248;6.808;2024-01-30T14:32:22;11.30;;;6.68;;